createdAt,value
2019-04-29T00:02:35.802Z,26.47
2019-04-29T00:05:15.061Z,31.85
2019-04-29T00:08:01.026Z,29.67
2019-04-29T00:10:43.407Z,30.67
2019-04-29T00:13:22.195Z,29.43
2019-04-29T00:16:22.995Z,26.53
2019-04-29T00:19:36.251Z,30.23
2019-04-29T00:22:17.798Z,27.90
2019-04-29T00:25:02.588Z,29.40
2019-04-29T00:27:46.102Z,29.83
2019-04-29T00:30:27.496Z,30.27
2019-04-29T00:33:12.118Z,32.20
2019-04-29T00:35:55.000Z,27.57
2019-04-29T00:38:58.813Z,26.90
2019-04-29T00:42:01.331Z,31.70
2019-04-29T00:44:45.939Z,32.43
2019-04-29T00:47:31.567Z,30.23
2019-04-29T00:50:16.102Z,33.93
2019-04-29T00:52:59.493Z,33.03
2019-04-29T00:55:41.767Z,34.57
2019-04-29T00:58:23.275Z,25.57
2019-04-29T01:01:04.650Z,30.60
2019-04-29T01:03:45.421Z,46.03
2019-04-29T01:06:26.439Z,33.90
2019-04-29T01:09:10.284Z,32.97
2019-04-29T01:14:49.921Z,28.23
2019-04-29T01:17:32.196Z,34.23
2019-04-29T01:20:15.944Z,34.70
2019-04-29T01:22:56.257Z,33.10
2019-04-29T01:25:35.133Z,29.07
2019-04-29T01:28:33.292Z,30.55
2019-04-29T01:31:19.165Z,35.73
2019-04-29T01:34:03.472Z,31.30
2019-04-29T01:36:46.539Z,36.83
2019-04-29T01:39:31.143Z,36.57
2019-04-29T01:42:31.994Z,30.10
2019-04-29T01:45:13.640Z,36.53
2019-04-29T01:47:54.340Z,33.43
2019-04-29T01:50:39.476Z,30.37
2019-04-29T01:53:19.545Z,38.37
2019-04-29T01:55:59.499Z,35.50
2019-04-29T01:58:42.489Z,40.58
2019-04-29T02:01:22.623Z,28.70
2019-04-29T02:04:07.312Z,42.07
2019-04-29T02:06:51.332Z,36.03
2019-04-29T02:09:55.842Z,32.23
2019-04-29T02:12:43.569Z,57.80
2019-04-29T02:15:23.954Z,39.30
2019-04-29T02:18:07.753Z,37.97
2019-04-29T02:20:58.016Z,38.10
2019-04-29T02:23:50.538Z,34.80
2019-04-29T02:26:31.953Z,36.80
2019-04-29T02:29:14.803Z,43.30
2019-04-29T02:32:05.681Z,54.13
2019-04-29T02:34:50.714Z,63.30
2019-04-29T02:37:36.893Z,55.40
2019-04-29T02:40:29.043Z,91.37
2019-04-29T02:43:15.274Z,51.57
2019-04-29T02:46:11.298Z,41.33
2019-04-29T02:49:09.268Z,43.57
2019-04-29T02:52:00.098Z,37.10
2019-04-29T02:54:45.365Z,43.42
2019-04-29T02:57:39.615Z,45.30
2019-04-29T03:00:48.703Z,43.55
2019-04-29T03:03:39.411Z,41.67
2019-04-29T03:06:23.793Z,35.23
2019-04-29T03:09:03.456Z,39.77
2019-04-29T03:11:52.567Z,52.07
2019-04-29T03:14:39.723Z,43.03
2019-04-29T03:17:26.674Z,36.10
2019-04-29T03:20:26.960Z,37.97
2019-04-29T03:23:22.103Z,51.33
2019-04-29T03:26:06.779Z,41.63
2019-04-29T03:28:53.796Z,33.30
2019-04-29T03:34:56.621Z,409.23
2019-04-29T03:40:49.477Z,67.73
2019-04-29T03:43:31.581Z,40.93
2019-04-29T03:46:13.136Z,45.80
2019-04-29T03:48:57.526Z,47.50
2019-04-29T03:52:00.910Z,45.53
2019-04-29T03:57:35.499Z,60.83
2019-04-29T04:00:16.236Z,54.13
2019-04-29T04:03:14.544Z,63.30
2019-04-29T04:06:09.832Z,91.67
2019-04-29T04:09:15.124Z,62.93
2019-04-29T04:11:55.814Z,66.50
2019-04-29T04:14:42.004Z,49.07
2019-04-29T04:17:54.968Z,41.33
2019-04-29T04:20:36.216Z,32.17
2019-04-29T04:23:57.815Z,48.50
2019-04-29T04:26:34.465Z,36.63
2019-04-29T04:29:19.353Z,30.50
2019-04-29T04:32:01.027Z,28.70
2019-04-29T04:34:47.075Z,35.25
2019-04-29T04:37:52.017Z,35.23
2019-04-29T04:40:41.643Z,33.00
2019-04-29T04:44:10.396Z,27.90
2019-04-29T04:46:59.846Z,57.10
2019-04-29T04:50:00.763Z,54.67
2019-04-29T04:53:08.486Z,49.40
2019-04-29T04:56:02.162Z,45.13
2019-04-29T04:59:01.216Z,189.90
2019-04-29T05:01:54.257Z,80.10
2019-04-29T05:05:00.478Z,42.83
2019-04-29T05:07:44.033Z,28.53
2019-04-29T05:10:29.185Z,37.17
2019-04-29T05:13:42.890Z,40.67
2019-04-29T05:16:36.364Z,30.07
2019-04-29T05:19:48.191Z,23.87
2019-04-29T05:22:41.892Z,35.07
2019-04-29T05:25:47.489Z,51.00
2019-04-29T05:28:42.386Z,27.87
2019-04-29T05:31:33.031Z,33.70
2019-04-29T05:34:26.695Z,25.73
2019-04-29T05:37:40.835Z,32.30
2019-04-29T05:40:38.368Z,25.73
2019-04-29T05:43:27.148Z,31.53
2019-04-29T05:46:21.678Z,65.10
2019-04-29T05:49:09.886Z,48.17
2019-04-29T05:52:15.558Z,37.73
2019-04-29T05:55:01.457Z,24.67
2019-04-29T05:57:41.812Z,30.23
2019-04-29T06:00:36.109Z,20.60
2019-04-29T06:03:19.406Z,21.50
2019-04-29T06:05:58.219Z,23.17
2019-04-29T06:08:45.981Z,29.03
2019-04-29T06:11:32.315Z,43.33
2019-04-29T06:14:21.810Z,24.17
2019-04-29T06:17:02.864Z,53.93
2019-04-29T06:19:47.780Z,35.60
2019-04-29T06:22:31.784Z,28.20
2019-04-29T06:25:18.745Z,21.67
2019-04-29T06:28:03.596Z,24.17
2019-04-29T06:30:50.241Z,24.70
2019-04-29T06:33:36.127Z,18.00
2019-04-29T06:36:19.134Z,23.30
2019-04-29T06:39:07.102Z,26.33
2019-04-29T06:41:57.195Z,25.73
2019-04-29T06:44:38.300Z,25.30
2019-04-29T06:47:23.466Z,24.43
2019-04-29T06:50:28.128Z,24.87
2019-04-29T06:53:16.450Z,16.83
2019-04-29T06:55:58.713Z,17.53
2019-04-29T06:58:41.602Z,20.20
2019-04-29T07:01:23.163Z,21.77
2019-04-29T07:04:12.930Z,19.07
2019-04-29T07:07:00.551Z,19.10
2019-04-29T07:09:43.133Z,25.70
2019-04-29T07:12:22.910Z,18.47
2019-04-29T07:15:07.615Z,28.10
2019-04-29T07:18:09.221Z,27.40
2019-04-29T07:20:57.350Z,25.73
2019-04-29T07:23:42.573Z,23.03
2019-04-29T07:26:27.806Z,24.10
2019-04-29T07:29:12.202Z,23.13
2019-04-29T07:31:56.046Z,25.03
2019-04-29T07:34:39.366Z,20.67
2019-04-29T07:37:16.902Z,23.73
2019-04-29T07:40:08.129Z,20.87
2019-04-29T07:42:50.372Z,24.20
2019-04-29T07:45:58.935Z,25.07
2019-04-29T07:48:41.882Z,28.93
2019-04-29T07:51:24.791Z,22.40
2019-04-29T07:54:11.176Z,19.50
2019-04-29T07:56:55.375Z,17.97
2019-04-29T07:59:42.058Z,26.23
2019-04-29T08:02:29.682Z,19.60
2019-04-29T08:05:17.890Z,16.07
2019-04-29T08:08:01.314Z,20.30
2019-04-29T08:10:55.719Z,22.10
2019-04-29T08:13:26.623Z,22.37
2019-04-29T08:16:17.243Z,15.57
2019-04-29T08:19:00.817Z,20.80
2019-04-29T08:21:40.046Z,25.90
2019-04-29T08:24:23.837Z,23.37
2019-04-29T08:27:04.973Z,20.40
2019-04-29T08:29:59.125Z,21.43
2019-04-29T08:35:53.481Z,21.40
2019-04-29T08:38:45.163Z,22.13
2019-04-29T08:41:38.888Z,22.23
2019-04-29T08:44:54.774Z,19.67
2019-04-29T08:47:42.428Z,19.83
2019-04-29T08:50:22.269Z,19.70
2019-04-29T08:53:04.326Z,16.97
2019-04-29T08:55:48.336Z,21.17
2019-04-29T08:58:39.553Z,21.97
2019-04-29T09:01:20.609Z,25.13
2019-04-29T09:04:08.015Z,31.75
2019-04-29T09:07:11.663Z,21.87
2019-04-29T09:09:50.027Z,18.17
2019-04-29T09:12:37.631Z,18.87
2019-04-29T09:15:19.393Z,22.33
2019-04-29T09:18:06.016Z,20.23
2019-04-29T09:20:50.153Z,23.97
2019-04-29T09:23:36.997Z,39.20
2019-04-29T09:26:35.703Z,29.87
2019-04-29T09:29:33.684Z,25.90
2019-04-29T09:32:15.158Z,24.70
2019-04-29T09:34:55.427Z,26.07
2019-04-29T09:37:37.344Z,21.30
2019-04-29T09:40:19.323Z,23.73
2019-04-29T09:43:32.526Z,22.00
2019-04-29T09:46:23.402Z,21.33
2019-04-29T09:49:10.102Z,20.80
2019-04-29T09:51:58.162Z,25.20
2019-04-29T09:54:42.015Z,23.50
2019-04-29T09:57:28.825Z,24.63
2019-04-29T10:00:22.492Z,21.03
2019-04-29T10:03:21.427Z,22.97
2019-04-29T10:06:16.749Z,25.23
2019-04-29T10:09:00.972Z,24.20
2019-04-29T10:11:45.358Z,18.80
2019-04-29T10:14:28.029Z,21.90
2019-04-29T10:17:28.783Z,22.33
2019-04-29T10:20:39.095Z,24.10
2019-04-29T10:23:18.806Z,21.27
2019-04-29T10:25:59.527Z,24.13
2019-04-29T10:28:42.258Z,22.33
2019-04-29T10:31:27.732Z,24.60
2019-04-29T10:34:10.955Z,20.50
2019-04-29T10:36:52.759Z,27.87
2019-04-29T10:40:18.176Z,26.87
2019-04-29T10:43:17.262Z,29.25
2019-04-29T10:49:51.295Z,23.80
2019-04-29T10:52:53.964Z,24.23
2019-04-29T11:12:45.979Z,35.90
2019-04-29T11:15:38.136Z,43.83
2019-04-29T11:18:25.297Z,30.83
2019-04-29T11:21:09.026Z,40.53
2019-04-29T11:24:15.789Z,58.20
2019-04-29T11:27:18.160Z,74.83
2019-04-29T11:30:10.729Z,64.07
2019-04-29T11:42:26.522Z,48.80
2019-04-29T11:49:21.827Z,33.87
2019-04-29T11:52:28.192Z,55.10
2019-04-29T11:58:57.318Z,61.27
2019-04-29T12:01:51.639Z,82.60
2019-04-29T12:04:42.566Z,56.20
2019-04-29T12:07:45.774Z,55.85
2019-04-29T12:10:38.295Z,122.75
2019-04-29T12:13:38.697Z,92.70
2019-04-29T12:16:34.391Z,78.13
2019-04-29T12:19:21.258Z,73.23
2019-04-29T12:22:25.516Z,64.67
2019-04-29T12:25:29.304Z,95.57
2019-04-29T12:28:20.241Z,105.53
2019-04-29T12:31:10.292Z,79.27
2019-04-29T12:34:03.361Z,1066.03
2019-04-29T12:36:56.811Z,826.33
2019-04-29T12:40:14.441Z,584.47
2019-04-29T12:43:11.212Z,233.10
2019-04-29T12:49:15.814Z,72.00
2019-04-29T12:51:58.281Z,145.77
2019-04-29T12:55:04.117Z,179.40
2019-04-29T12:57:39.873Z,99.47
2019-04-29T13:01:06.538Z,213.93
2019-04-29T13:07:29.955Z,46.20
2019-04-29T13:13:56.714Z,40.30
2019-04-29T13:16:55.658Z,55.40
2019-04-29T13:20:01.472Z,48.40
2019-04-29T13:22:59.008Z,49.13
2019-04-29T13:26:02.533Z,45.23
2019-04-29T13:29:00.233Z,48.03
2019-04-29T13:31:50.296Z,48.45
2019-04-29T13:34:50.156Z,45.10
2019-04-29T13:37:44.047Z,36.43
2019-04-29T13:40:41.491Z,41.97
2019-04-29T13:43:51.251Z,39.23
2019-04-29T13:47:19.148Z,39.27
2019-04-29T13:50:38.967Z,33.13
2019-04-29T13:53:11.562Z,35.47
2019-04-29T13:56:11.273Z,40.47
2019-04-29T13:59:05.734Z,44.23
2019-04-29T14:02:13.093Z,41.57
2019-04-29T14:05:10.202Z,48.03
2019-04-29T14:12:46.753Z,44.23
2019-04-29T14:14:35.385Z,38.37
2019-04-29T14:17:27.039Z,40.13
2019-04-29T14:27:25.048Z,96.53
2019-04-29T14:30:13.193Z,49.57
2019-04-29T14:33:19.339Z,269.97
2019-04-29T14:36:05.734Z,88.17
2019-04-29T14:38:52.816Z,46.60
2019-04-29T14:41:35.864Z,37.43
2019-04-29T14:44:42.222Z,31.80
2019-04-29T14:47:35.889Z,31.07
2019-04-29T14:50:24.933Z,34.20
2019-04-29T14:53:10.062Z,35.73
2019-04-29T14:56:08.384Z,32.77
2019-04-29T14:59:06.066Z,25.97
2019-04-29T15:01:46.601Z,32.40
2019-04-29T15:04:30.738Z,32.42
2019-04-29T15:07:29.791Z,32.20
2019-04-29T15:10:22.572Z,30.30
2019-04-29T15:13:21.797Z,26.80
2019-04-29T15:16:21.228Z,34.50
2019-04-29T15:19:21.857Z,84.20
2019-04-29T15:22:17.582Z,201.70
2019-04-29T15:25:03.102Z,63.63
2019-04-29T15:27:56.378Z,34.37
2019-04-29T15:30:49.888Z,25.00
2019-04-29T15:33:41.223Z,29.20
2019-04-29T15:36:38.430Z,22.83
2019-04-29T15:42:42.456Z,26.63
2019-04-29T15:45:45.596Z,28.27
2019-04-29T15:48:32.299Z,27.07
2019-04-29T15:51:23.375Z,25.93
2019-04-29T15:54:14.335Z,29.83
2019-04-29T15:57:18.830Z,25.00
2019-04-29T16:00:21.561Z,31.67
2019-04-29T16:03:04.150Z,31.45
2019-04-29T16:06:21.227Z,32.63
2019-04-29T16:09:11.802Z,36.03
2019-04-29T16:12:15.397Z,19.60
2019-04-29T16:14:57.576Z,24.83
2019-04-29T16:17:54.291Z,20.67
2019-04-29T16:20:41.428Z,22.97
2019-04-29T16:23:24.577Z,21.03
2019-04-29T16:26:25.016Z,20.23
2019-04-29T16:29:15.978Z,23.33
2019-04-29T16:32:02.991Z,17.82
2019-04-29T16:34:47.048Z,20.80
2019-04-29T16:37:35.764Z,21.83
2019-04-29T16:40:20.811Z,122.00
2019-04-29T16:43:17.081Z,158.60
2019-04-29T16:46:24.269Z,45.07
2019-04-29T16:49:04.100Z,27.97
2019-04-29T16:51:53.469Z,27.53
2019-04-29T16:54:30.985Z,24.47
2019-04-29T16:57:19.221Z,19.60
2019-04-29T17:00:13.656Z,19.50
2019-04-29T17:02:52.340Z,21.10
2019-04-29T17:05:42.001Z,22.23
2019-04-29T17:08:28.931Z,23.33
2019-04-29T17:11:19.371Z,23.07
2019-04-29T17:14:13.020Z,24.63
2019-04-29T17:16:52.084Z,24.13
2019-04-29T17:19:35.477Z,20.93
2019-04-29T17:22:27.307Z,25.00
2019-04-29T17:25:02.108Z,20.97
2019-04-29T17:28:24.301Z,24.07
2019-04-29T17:31:13.068Z,20.27
2019-04-29T17:34:08.483Z,22.07
2019-04-29T17:37:00.602Z,22.17
2019-04-29T17:39:40.401Z,20.20
2019-04-29T17:42:21.690Z,15.60
2019-04-29T17:45:10.570Z,22.97
2019-04-29T17:48:07.838Z,24.27
2019-04-29T17:50:50.553Z,22.43
2019-04-29T17:53:37.058Z,17.57
2019-04-29T17:56:30.033Z,24.20
2019-04-29T17:59:45.826Z,21.12
2019-04-29T18:03:03.200Z,25.00
2019-04-29T18:05:57.079Z,16.40
2019-04-29T18:08:58.718Z,17.53
2019-04-29T18:11:51.549Z,24.83
2019-04-29T18:14:37.365Z,19.33
2019-04-29T18:17:24.122Z,19.33
2019-04-29T18:20:24.904Z,19.87
2019-04-29T18:23:18.986Z,26.13
2019-04-29T18:26:11.577Z,20.77
2019-04-29T18:28:58.323Z,19.90
2019-04-29T18:31:35.627Z,17.90
2019-04-29T18:34:25.153Z,23.83
2019-04-29T18:37:07.343Z,15.77
2019-04-29T18:39:49.086Z,17.23
2019-04-29T18:42:31.487Z,25.57
2019-04-29T18:45:20.977Z,37.03
2019-04-29T18:48:03.099Z,35.60
2019-04-29T18:50:49.177Z,37.97
2019-04-29T18:53:30.810Z,42.53
2019-04-29T18:56:14.772Z,44.47
2019-04-29T18:58:58.939Z,46.30
2019-04-29T19:01:38.082Z,54.80
2019-04-29T19:04:35.568Z,46.70
2019-04-29T19:07:17.224Z,44.67
2019-04-29T19:10:00.732Z,51.07
2019-04-29T19:12:57.396Z,49.10
2019-04-29T19:15:29.000Z,51.00
2019-04-29T19:18:12.309Z,46.33
2019-04-29T19:20:56.841Z,45.20
2019-04-29T19:23:38.876Z,44.93
2019-04-29T19:26:22.474Z,53.93
2019-04-29T19:29:09.474Z,53.90
2019-04-29T19:31:54.917Z,46.40
2019-04-29T19:34:42.780Z,49.13
2019-04-29T19:37:31.996Z,55.47
2019-04-29T19:40:09.180Z,45.37
2019-04-29T19:42:51.712Z,58.77
2019-04-29T19:45:35.488Z,46.47
2019-04-29T19:48:22.395Z,53.07
2019-04-29T19:51:14.615Z,52.20
2019-04-29T19:53:55.104Z,50.70
2019-04-29T19:56:39.165Z,47.37
2019-04-29T19:59:21.915Z,57.85
2019-04-29T20:02:10.112Z,53.63
2019-04-29T20:04:56.086Z,60.53
2019-04-29T20:07:42.093Z,71.47
2019-04-29T20:10:21.910Z,53.67
2019-04-29T20:13:06.877Z,59.50
2019-04-29T20:16:10.034Z,54.93
2019-04-29T20:19:16.509Z,59.20
2019-04-29T20:21:51.274Z,62.87
2019-04-29T20:24:36.103Z,60.27
2019-04-29T20:27:18.059Z,57.00
2019-04-29T20:30:01.240Z,60.53
2019-04-29T20:32:47.315Z,55.70
2019-04-29T20:35:30.767Z,54.97
2019-04-29T20:38:17.186Z,61.87
2019-04-29T20:41:06.191Z,53.30
2019-04-29T20:43:49.166Z,49.53
2019-04-29T20:46:44.592Z,53.53
2019-04-29T20:49:19.297Z,57.80
2019-04-29T20:52:20.601Z,48.93
2019-04-29T20:55:02.446Z,52.57
2019-04-29T20:57:47.996Z,48.28
2019-04-29T21:00:32.967Z,50.57
2019-04-29T21:03:27.363Z,50.87
2019-04-29T21:06:02.705Z,54.27
2019-04-29T21:08:51.189Z,48.40
2019-04-29T21:11:56.130Z,43.30
2019-04-29T21:14:46.482Z,34.03
2019-04-29T21:17:32.000Z,34.03
2019-04-29T21:20:13.698Z,34.07
2019-04-29T21:22:59.363Z,40.03
2019-04-29T21:25:37.591Z,41.47
2019-04-29T21:28:22.659Z,47.90
2019-04-29T21:31:07.125Z,56.23
2019-04-29T21:33:56.543Z,54.87
2019-04-29T21:37:01.703Z,59.07
2019-04-29T21:39:51.207Z,59.67
2019-04-29T21:42:47.365Z,57.43
2019-04-29T21:45:32.913Z,57.93
2019-04-29T21:48:16.277Z,56.60
2019-04-29T21:51:02.501Z,52.03
2019-04-29T21:53:46.399Z,60.83
2019-04-29T21:56:30.681Z,58.73
2019-04-29T21:59:15.768Z,46.47
2019-04-29T22:01:59.232Z,35.53
2019-04-29T22:04:41.422Z,43.17
2019-04-29T22:07:23.474Z,39.77
2019-04-29T22:10:05.247Z,38.30
2019-04-29T22:12:51.023Z,28.43
2019-04-29T22:15:39.019Z,29.33
2019-04-29T22:18:18.005Z,31.60
2019-04-29T22:20:58.703Z,28.40
2019-04-29T22:23:44.278Z,34.13
2019-04-29T22:26:26.853Z,29.07
2019-04-29T22:29:06.973Z,35.13
2019-04-29T22:31:47.814Z,26.93
2019-04-29T22:34:31.287Z,28.07
2019-04-29T22:37:15.615Z,25.00
2019-04-29T22:40:03.125Z,25.67
2019-04-29T22:43:04.753Z,22.00
2019-04-29T22:45:38.531Z,25.93
2019-04-29T22:48:22.213Z,23.07
2019-04-29T22:51:05.737Z,21.90
2019-04-29T22:53:48.312Z,24.93
2019-04-29T22:56:28.096Z,36.43
2019-04-29T22:59:08.834Z,71.77
2019-04-29T23:01:52.299Z,33.07
2019-04-29T23:04:35.147Z,22.57
2019-04-29T23:07:22.192Z,27.13
2019-04-29T23:10:02.711Z,28.30
2019-04-29T23:12:49.258Z,29.87
2019-04-29T23:15:32.606Z,26.73
2019-04-29T23:18:26.676Z,31.30
2019-04-29T23:21:36.030Z,27.90
2019-04-29T23:24:31.506Z,26.60
2019-04-29T23:27:19.606Z,27.62
2019-04-29T23:30:02.955Z,29.07
2019-04-29T23:32:47.443Z,32.93
2019-04-29T23:35:27.674Z,36.47
2019-04-29T23:38:09.666Z,36.70
2019-04-29T23:40:54.354Z,29.53
2019-04-29T23:43:35.525Z,31.80
2019-04-29T23:46:20.678Z,30.53
2019-04-29T23:49:04.663Z,27.93
2019-04-29T23:51:46.464Z,27.30
2019-04-29T23:54:31.153Z,29.18
2019-04-29T23:57:39.806Z,27.07
